sensor_id;sensor_type;location;lat;lon;timestamp;P1;durP1;ratioP1;P2;durP2;ratioP2
2488;SDS011;1255;48.716;9.124;2023-03-31T00:02:09;3.05;;;1.67;;
2488;SDS011;1255;48.716;9.124;2023-03-31T00:04:38;2.40;;;1.65;;
2488;SDS011;1255;48.716;9.124;2023-03-31T00:07:10;1.65;;;1.20;;
2488;SDS011;1255;48.716;9.124;2023-03-31T00:09:39;2.00;;;1.80;;
2488;SDS011;1255;48.716;9.124;2023-03-31T00:12:12;4.35;;;1.60;;
2488;SDS011;1255;48.716;9.124;2023-03-31T00:14:39;2.97;;;1.90;;
2488;SDS011;1255;48.716;9.124;2023-03-31T00:17:07;2.72;;;1.85;;
2488;SDS011;1255;48.716;9.124;2023-03-31T00:19:34;4.40;;;1.58;;
2488;SDS011;1255;48.716;9.124;2023-03-31T00:22:01;1.83;;;1.65;;
2488;SDS011;1255;48.716;9.124;2023-03-31T00:24:29;2.78;;;1.50;;
2488;SDS011;1255;48.716;9.124;2023-03-31T00:26:58;3.17;;;1.55;;
2488;SDS011;1255;48.716;9.124;2023-03-31T00:29:25;4.18;;;1.90;;
2488;SDS011;1255;48.716;9.124;2023-03-31T00:31:52;3.85;;;1.60;;
2488;SDS011;1255;48.716;9.124;2023-03-31T00:34:19;2.75;;;1.73;;
2488;SDS011;1255;48.716;9.124;2023-03-31T00:36:46;2.10;;;1.40;;
2488;SDS011;1255;48.716;9.124;2023-03-31T00:39:13;6.68;;;2.00;;
2488;SDS011;1255;48.716;9.124;2023-03-31T00:41:42;3.72;;;1.65;;
2488;SDS011;1255;48.716;9.124;2023-03-31T00:44:12;5.75;;;2.20;;
2488;SDS011;1255;48.716;9.124;2023-03-31T00:46:46;11.13;;;2.25;;
2488;SDS011;1255;48.716;9.124;2023-03-31T00:49:18;2.17;;;1.65;;
2488;SDS011;1255;48.716;9.124;2023-03-31T00:51:50;2.10;;;1.60;;
2488;SDS011;1255;48.716;9.124;2023-03-31T00:54:20;3.95;;;1.40;;
2488;SDS011;1255;48.716;9.124;2023-03-31T00:56:50;2.53;;;1.58;;
2488;SDS011;1255;48.716;9.124;2023-03-31T00:59:20;2.70;;;1.40;;
2488;SDS011;1255;48.716;9.124;2023-03-31T01:01:52;3.45;;;1.60;;
2488;SDS011;1255;48.716;9.124;2023-03-31T01:04:23;2.67;;;1.70;;
2488;SDS011;1255;48.716;9.124;2023-03-31T01:06:52;4.93;;;1.55;;
2488;SDS011;1255;48.716;9.124;2023-03-31T01:09:24;2.17;;;1.98;;
2488;SDS011;1255;48.716;9.124;2023-03-31T01:11:54;2.35;;;2.05;;
2488;SDS011;1255;48.716;9.124;2023-03-31T01:14:23;2.15;;;1.60;;
2488;SDS011;1255;48.716;9.124;2023-03-31T01:16:50;2.05;;;1.60;;
2488;SDS011;1255;48.716;9.124;2023-03-31T01:19:18;2.05;;;1.65;;
2488;SDS011;1255;48.716;9.124;2023-03-31T01:25:04;2.60;;;1.70;;
2488;SDS011;1255;48.716;9.124;2023-03-31T01:27:48;1.55;;;1.42;;
2488;SDS011;1255;48.716;9.124;2023-03-31T01:30:33;4.68;;;1.77;;
2488;SDS011;1255;48.716;9.124;2023-03-31T01:36:50;2.35;;;1.40;;
2488;SDS011;1255;48.716;9.124;2023-03-31T01:40:00;2.60;;;1.52;;
2488;SDS011;1255;48.716;9.124;2023-03-31T01:42:40;3.20;;;1.65;;
2488;SDS011;1255;48.716;9.124;2023-03-31T01:45:17;2.75;;;1.30;;
2488;SDS011;1255;48.716;9.124;2023-03-31T01:47:52;3.25;;;1.58;;
2488;SDS011;1255;48.716;9.124;2023-03-31T01:50:23;2.53;;;1.70;;
2488;SDS011;1255;48.716;9.124;2023-03-31T01:52:55;3.35;;;1.58;;
2488;SDS011;1255;48.716;9.124;2023-03-31T01:55:29;2.00;;;1.30;;
2488;SDS011;1255;48.716;9.124;2023-03-31T01:58:02;2.78;;;1.50;;
2488;SDS011;1255;48.716;9.124;2023-03-31T02:00:35;1.73;;;1.60;;
2488;SDS011;1255;48.716;9.124;2023-03-31T02:03:05;2.33;;;1.42;;
2488;SDS011;1255;48.716;9.124;2023-03-31T02:05:37;3.85;;;1.80;;
2488;SDS011;1255;48.716;9.124;2023-03-31T02:08:09;5.13;;;2.05;;
2488;SDS011;1255;48.716;9.124;2023-03-31T02:10:41;2.80;;;1.67;;
2488;SDS011;1255;48.716;9.124;2023-03-31T02:13:10;3.38;;;1.40;;
2488;SDS011;1255;48.716;9.124;2023-03-31T02:15:40;3.20;;;1.30;;
2488;SDS011;1255;48.716;9.124;2023-03-31T02:18:12;4.07;;;1.77;;
2488;SDS011;1255;48.716;9.124;2023-03-31T02:20:43;1.80;;;1.70;;
2488;SDS011;1255;48.716;9.124;2023-03-31T02:23:13;1.83;;;1.30;;
2488;SDS011;1255;48.716;9.124;2023-03-31T02:25:45;5.20;;;1.63;;
2488;SDS011;1255;48.716;9.124;2023-03-31T02:28:15;5.57;;;2.03;;
2488;SDS011;1255;48.716;9.124;2023-03-31T02:30:48;4.28;;;2.30;;
2488;SDS011;1255;48.716;9.124;2023-03-31T02:33:19;5.15;;;1.75;;
2488;SDS011;1255;48.716;9.124;2023-03-31T02:35:46;2.45;;;1.83;;
2488;SDS011;1255;48.716;9.124;2023-03-31T02:38:12;2.53;;;2.22;;
2488;SDS011;1255;48.716;9.124;2023-03-31T02:40:39;5.15;;;2.03;;
2488;SDS011;1255;48.716;9.124;2023-03-31T02:43:08;5.20;;;2.20;;
2488;SDS011;1255;48.716;9.124;2023-03-31T02:45:36;7.45;;;2.15;;
2488;SDS011;1255;48.716;9.124;2023-03-31T02:48:09;2.38;;;1.55;;
2488;SDS011;1255;48.716;9.124;2023-03-31T02:50:43;7.07;;;2.40;;
2488;SDS011;1255;48.716;9.124;2023-03-31T02:53:26;2.05;;;1.83;;
2488;SDS011;1255;48.716;9.124;2023-03-31T02:56:07;3.40;;;1.77;;
2488;SDS011;1255;48.716;9.124;2023-03-31T02:58:52;2.00;;;1.83;;
2488;SDS011;1255;48.716;9.124;2023-03-31T03:01:36;4.47;;;1.85;;
2488;SDS011;1255;48.716;9.124;2023-03-31T03:04:10;2.05;;;1.55;;
2488;SDS011;1255;48.716;9.124;2023-03-31T03:06:51;3.22;;;2.55;;
2488;SDS011;1255;48.716;9.124;2023-03-31T03:09:29;2.33;;;1.27;;
2488;SDS011;1255;48.716;9.124;2023-03-31T03:12:05;4.50;;;1.75;;
2488;SDS011;1255;48.716;9.124;2023-03-31T03:14:38;3.15;;;1.90;;
2488;SDS011;1255;48.716;9.124;2023-03-31T03:17:12;1.42;;;1.30;;
2488;SDS011;1255;48.716;9.124;2023-03-31T03:19:49;3.67;;;2.08;;
2488;SDS011;1255;48.716;9.124;2023-03-31T03:22:18;5.05;;;1.67;;
2488;SDS011;1255;48.716;9.124;2023-03-31T03:24:45;2.80;;;1.83;;
2488;SDS011;1255;48.716;9.124;2023-03-31T03:27:11;3.75;;;2.13;;
2488;SDS011;1255;48.716;9.124;2023-03-31T03:29:40;3.05;;;1.77;;
2488;SDS011;1255;48.716;9.124;2023-03-31T03:32:07;1.90;;;1.63;;
2488;SDS011;1255;48.716;9.124;2023-03-31T03:34:34;2.03;;;1.73;;
2488;SDS011;1255;48.716;9.124;2023-03-31T03:37:01;3.15;;;1.77;;
2488;SDS011;1255;48.716;9.124;2023-03-31T03:39:27;2.17;;;1.80;;
2488;SDS011;1255;48.716;9.124;2023-03-31T03:41:54;2.50;;;1.90;;
2488;SDS011;1255;48.716;9.124;2023-03-31T03:44:21;2.90;;;1.80;;
2488;SDS011;1255;48.716;9.124;2023-03-31T03:46:49;2.67;;;2.38;;
2488;SDS011;1255;48.716;9.124;2023-03-31T03:49:16;2.38;;;1.67;;
2488;SDS011;1255;48.716;9.124;2023-03-31T03:51:44;2.47;;;1.88;;
2488;SDS011;1255;48.716;9.124;2023-03-31T03:54:11;6.55;;;2.17;;
2488;SDS011;1255;48.716;9.124;2023-03-31T03:56:37;3.38;;;1.98;;
2488;SDS011;1255;48.716;9.124;2023-03-31T03:59:04;3.22;;;1.80;;
2488;SDS011;1255;48.716;9.124;2023-03-31T04:01:31;4.07;;;2.08;;
2488;SDS011;1255;48.716;9.124;2023-03-31T04:03:59;1.60;;;1.50;;
2488;SDS011;1255;48.716;9.124;2023-03-31T04:06:26;3.15;;;1.85;;
2488;SDS011;1255;48.716;9.124;2023-03-31T04:08:52;2.35;;;1.95;;
2488;SDS011;1255;48.716;9.124;2023-03-31T04:11:19;3.08;;;2.08;;
2488;SDS011;1255;48.716;9.124;2023-03-31T04:13:46;2.67;;;2.20;;
2488;SDS011;1255;48.716;9.124;2023-03-31T04:16:13;3.28;;;2.30;;
2488;SDS011;1255;48.716;9.124;2023-03-31T04:18:40;3.70;;;2.35;;
2488;SDS011;1255;48.716;9.124;2023-03-31T04:21:09;5.50;;;2.33;;
2488;SDS011;1255;48.716;9.124;2023-03-31T04:23:39;3.20;;;2.00;;
2488;SDS011;1255;48.716;9.124;2023-03-31T04:26:10;2.08;;;1.88;;
2488;SDS011;1255;48.716;9.124;2023-03-31T04:28:37;2.92;;;2.33;;
2488;SDS011;1255;48.716;9.124;2023-03-31T04:31:08;2.65;;;2.10;;
2488;SDS011;1255;48.716;9.124;2023-03-31T04:33:39;3.38;;;2.15;;
2488;SDS011;1255;48.716;9.124;2023-03-31T04:36:11;3.58;;;2.30;;
2488;SDS011;1255;48.716;9.124;2023-03-31T04:38:42;5.63;;;2.95;;
2488;SDS011;1255;48.716;9.124;2023-03-31T04:41:11;3.60;;;2.30;;
2488;SDS011;1255;48.716;9.124;2023-03-31T04:43:37;6.13;;;2.75;;
2488;SDS011;1255;48.716;9.124;2023-03-31T04:46:04;2.42;;;2.05;;
2488;SDS011;1255;48.716;9.124;2023-03-31T04:48:31;5.18;;;2.13;;
2488;SDS011;1255;48.716;9.124;2023-03-31T04:50:58;5.53;;;2.25;;
2488;SDS011;1255;48.716;9.124;2023-03-31T04:53:26;2.63;;;1.90;;
2488;SDS011;1255;48.716;9.124;2023-03-31T04:55:54;4.65;;;2.15;;
2488;SDS011;1255;48.716;9.124;2023-03-31T04:58:21;4.53;;;2.50;;
2488;SDS011;1255;48.716;9.124;2023-03-31T05:00:47;2.15;;;1.67;;
2488;SDS011;1255;48.716;9.124;2023-03-31T05:03:14;2.80;;;2.00;;
2488;SDS011;1255;48.716;9.124;2023-03-31T05:05:41;4.65;;;2.30;;
2488;SDS011;1255;48.716;9.124;2023-03-31T05:08:07;4.60;;;2.55;;
2488;SDS011;1255;48.716;9.124;2023-03-31T05:10:36;3.83;;;2.45;;
2488;SDS011;1255;48.716;9.124;2023-03-31T05:13:02;7.13;;;2.60;;
2488;SDS011;1255;48.716;9.124;2023-03-31T05:15:29;2.65;;;2.00;;
2488;SDS011;1255;48.716;9.124;2023-03-31T05:17:56;4.25;;;2.50;;
2488;SDS011;1255;48.716;9.124;2023-03-31T05:20:23;4.85;;;2.33;;
2488;SDS011;1255;48.716;9.124;2023-03-31T05:22:50;3.05;;;2.33;;
2488;SDS011;1255;48.716;9.124;2023-03-31T05:25:17;4.57;;;3.15;;
2488;SDS011;1255;48.716;9.124;2023-03-31T05:27:45;3.58;;;2.70;;
2488;SDS011;1255;48.716;9.124;2023-03-31T05:30:12;3.13;;;2.60;;
2488;SDS011;1255;48.716;9.124;2023-03-31T05:32:39;2.97;;;2.25;;
2488;SDS011;1255;48.716;9.124;2023-03-31T05:35:06;3.53;;;2.63;;
2488;SDS011;1255;48.716;9.124;2023-03-31T05:37:34;3.50;;;2.70;;
2488;SDS011;1255;48.716;9.124;2023-03-31T05:40:00;2.90;;;2.35;;
2488;SDS011;1255;48.716;9.124;2023-03-31T05:42:29;2.95;;;2.13;;
2488;SDS011;1255;48.716;9.124;2023-03-31T05:44:57;3.45;;;2.47;;
2488;SDS011;1255;48.716;9.124;2023-03-31T05:47:23;2.50;;;2.30;;
2488;SDS011;1255;48.716;9.124;2023-03-31T05:49:50;2.70;;;2.30;;
2488;SDS011;1255;48.716;9.124;2023-03-31T05:52:17;3.65;;;2.83;;
2488;SDS011;1255;48.716;9.124;2023-03-31T05:54:44;4.13;;;2.75;;
2488;SDS011;1255;48.716;9.124;2023-03-31T05:57:11;3.75;;;2.67;;
2488;SDS011;1255;48.716;9.124;2023-03-31T05:59:37;3.70;;;2.25;;
2488;SDS011;1255;48.716;9.124;2023-03-31T06:02:07;2.80;;;2.22;;
2488;SDS011;1255;48.716;9.124;2023-03-31T06:04:37;5.10;;;2.72;;
2488;SDS011;1255;48.716;9.124;2023-03-31T06:07:04;2.55;;;2.30;;
2488;SDS011;1255;48.716;9.124;2023-03-31T06:09:32;2.92;;;2.40;;
2488;SDS011;1255;48.716;9.124;2023-03-31T06:11:59;3.78;;;2.40;;
2488;SDS011;1255;48.716;9.124;2023-03-31T06:14:25;3.10;;;2.80;;
2488;SDS011;1255;48.716;9.124;2023-03-31T06:16:52;5.05;;;2.80;;
2488;SDS011;1255;48.716;9.124;2023-03-31T06:19:21;3.90;;;2.17;;
2488;SDS011;1255;48.716;9.124;2023-03-31T06:21:48;4.00;;;2.33;;
2488;SDS011;1255;48.716;9.124;2023-03-31T06:24:16;4.72;;;3.20;;
2488;SDS011;1255;48.716;9.124;2023-03-31T06:26:42;2.72;;;2.47;;
2488;SDS011;1255;48.716;9.124;2023-03-31T06:29:09;5.80;;;3.17;;
2488;SDS011;1255;48.716;9.124;2023-03-31T06:31:36;6.28;;;3.42;;
2488;SDS011;1255;48.716;9.124;2023-03-31T06:34:02;5.35;;;3.42;;
2488;SDS011;1255;48.716;9.124;2023-03-31T06:36:31;3.85;;;2.90;;
2488;SDS011;1255;48.716;9.124;2023-03-31T06:38:58;3.92;;;2.95;;
2488;SDS011;1255;48.716;9.124;2023-03-31T06:41:25;4.93;;;3.63;;
2488;SDS011;1255;48.716;9.124;2023-03-31T06:43:52;4.57;;;2.92;;
2488;SDS011;1255;48.716;9.124;2023-03-31T06:46:19;3.67;;;2.95;;
2488;SDS011;1255;48.716;9.124;2023-03-31T06:48:45;3.58;;;2.83;;
2488;SDS011;1255;48.716;9.124;2023-03-31T06:51:12;3.92;;;2.90;;
2488;SDS011;1255;48.716;9.124;2023-03-31T06:53:40;4.05;;;2.80;;
2488;SDS011;1255;48.716;9.124;2023-03-31T06:56:07;4.47;;;3.13;;
2488;SDS011;1255;48.716;9.124;2023-03-31T06:58:33;8.20;;;4.15;;
2488;SDS011;1255;48.716;9.124;2023-03-31T07:01:00;5.40;;;3.35;;
2488;SDS011;1255;48.716;9.124;2023-03-31T07:03:28;3.25;;;2.80;;
2488;SDS011;1255;48.716;9.124;2023-03-31T07:05:55;5.13;;;3.00;;
2488;SDS011;1255;48.716;9.124;2023-03-31T07:08:22;3.90;;;3.00;;
2488;SDS011;1255;48.716;9.124;2023-03-31T07:10:52;5.38;;;2.90;;
2488;SDS011;1255;48.716;9.124;2023-03-31T07:13:21;5.05;;;3.03;;
2488;SDS011;1255;48.716;9.124;2023-03-31T07:15:49;4.18;;;3.45;;
2488;SDS011;1255;48.716;9.124;2023-03-31T07:18:15;3.22;;;2.60;;
2488;SDS011;1255;48.716;9.124;2023-03-31T07:20:43;3.03;;;2.05;;
2488;SDS011;1255;48.716;9.124;2023-03-31T07:23:12;2.65;;;2.45;;
2488;SDS011;1255;48.716;9.124;2023-03-31T07:25:39;2.90;;;2.25;;
2488;SDS011;1255;48.716;9.124;2023-03-31T07:28:07;3.13;;;2.13;;
2488;SDS011;1255;48.716;9.124;2023-03-31T07:30:34;2.30;;;1.70;;
2488;SDS011;1255;48.716;9.124;2023-03-31T07:33:00;3.47;;;2.13;;
2488;SDS011;1255;48.716;9.124;2023-03-31T07:35:27;2.85;;;2.20;;
2488;SDS011;1255;48.716;9.124;2023-03-31T07:37:54;1.92;;;1.70;;
2488;SDS011;1255;48.716;9.124;2023-03-31T07:40:22;1.83;;;1.63;;
2488;SDS011;1255;48.716;9.124;2023-03-31T07:42:50;2.08;;;1.50;;
2488;SDS011;1255;48.716;9.124;2023-03-31T07:45:22;2.10;;;1.10;;
2488;SDS011;1255;48.716;9.124;2023-03-31T07:47:50;1.45;;;1.30;;
2488;SDS011;1255;48.716;9.124;2023-03-31T07:50:17;1.65;;;1.13;;
2488;SDS011;1255;48.716;9.124;2023-03-31T07:52:44;1.95;;;1.30;;
2488;SDS011;1255;48.716;9.124;2023-03-31T07:55:11;1.77;;;1.23;;
2488;SDS011;1255;48.716;9.124;2023-03-31T07:57:38;1.23;;;1.13;;
2488;SDS011;1255;48.716;9.124;2023-03-31T08:00:06;1.25;;;1.10;;
2488;SDS011;1255;48.716;9.124;2023-03-31T08:02:37;1.27;;;1.00;;
2488;SDS011;1255;48.716;9.124;2023-03-31T08:05:05;3.05;;;1.75;;
2488;SDS011;1255;48.716;9.124;2023-03-31T08:07:32;1.27;;;1.17;;
2488;SDS011;1255;48.716;9.124;2023-03-31T08:10:01;1.50;;;1.15;;
2488;SDS011;1255;48.716;9.124;2023-03-31T08:12:29;2.58;;;0.98;;
2488;SDS011;1255;48.716;9.124;2023-03-31T08:14:56;1.20;;;1.00;;
2488;SDS011;1255;48.716;9.124;2023-03-31T08:17:23;1.47;;;1.10;;
2488;SDS011;1255;48.716;9.124;2023-03-31T08:19:51;1.20;;;1.00;;
2488;SDS011;1255;48.716;9.124;2023-03-31T08:22:18;1.10;;;1.00;;
2488;SDS011;1255;48.716;9.124;2023-03-31T08:24:47;0.97;;;0.83;;
2488;SDS011;1255;48.716;9.124;2023-03-31T08:27:14;1.20;;;1.07;;
2488;SDS011;1255;48.716;9.124;2023-03-31T08:29:41;1.00;;;0.90;;
2488;SDS011;1255;48.716;9.124;2023-03-31T08:32:08;1.07;;;0.97;;
2488;SDS011;1255;48.716;9.124;2023-03-31T08:34:35;2.20;;;1.00;;
2488;SDS011;1255;48.716;9.124;2023-03-31T08:37:03;2.40;;;1.00;;
2488;SDS011;1255;48.716;9.124;2023-03-31T08:39:30;3.77;;;1.10;;
2488;SDS011;1255;48.716;9.124;2023-03-31T08:41:59;1.27;;;1.17;;
2488;SDS011;1255;48.716;9.124;2023-03-31T08:44:28;2.60;;;1.33;;
2488;SDS011;1255;48.716;9.124;2023-03-31T08:47:01;1.97;;;1.23;;
2488;SDS011;1255;48.716;9.124;2023-03-31T08:49:32;1.50;;;1.00;;
2488;SDS011;1255;48.716;9.124;2023-03-31T08:52:08;1.80;;;1.23;;
2488;SDS011;1255;48.716;9.124;2023-03-31T08:54:40;1.67;;;1.30;;
2488;SDS011;1255;48.716;9.124;2023-03-31T08:57:11;3.40;;;1.30;;
2488;SDS011;1255;48.716;9.124;2023-03-31T08:59:44;1.63;;;1.10;;
2488;SDS011;1255;48.716;9.124;2023-03-31T09:02:14;1.50;;;1.07;;
2488;SDS011;1255;48.716;9.124;2023-03-31T09:04:49;2.33;;;1.33;;
2488;SDS011;1255;48.716;9.124;2023-03-31T09:07:49;2.07;;;1.03;;
2488;SDS011;1255;48.716;9.124;2023-03-31T09:10:26;1.57;;;1.10;;
2488;SDS011;1255;48.716;9.124;2023-03-31T09:13:04;2.03;;;0.93;;
2488;SDS011;1255;48.716;9.124;2023-03-31T09:15:42;1.63;;;1.17;;
2488;SDS011;1255;48.716;9.124;2023-03-31T09:18:15;2.70;;;1.33;;
2488;SDS011;1255;48.716;9.124;2023-03-31T09:20:52;1.30;;;0.90;;
2488;SDS011;1255;48.716;9.124;2023-03-31T09:23:25;2.17;;;1.27;;
2488;SDS011;1255;48.716;9.124;2023-03-31T09:25:55;2.60;;;1.20;;
2488;SDS011;1255;48.716;9.124;2023-03-31T09:28:27;2.20;;;1.40;;
2488;SDS011;1255;48.716;9.124;2023-03-31T09:30:57;1.70;;;1.20;;
2488;SDS011;1255;48.716;9.124;2023-03-31T09:33:25;3.43;;;1.57;;
2488;SDS011;1255;48.716;9.124;2023-03-31T09:35:56;2.20;;;1.13;;
2488;SDS011;1255;48.716;9.124;2023-03-31T09:38:24;1.87;;;1.00;;
2488;SDS011;1255;48.716;9.124;2023-03-31T09:40:53;1.20;;;1.07;;
2488;SDS011;1255;48.716;9.124;2023-03-31T09:43:21;1.70;;;1.60;;
2488;SDS011;1255;48.716;9.124;2023-03-31T09:45:50;2.90;;;1.30;;
2488;SDS011;1255;48.716;9.124;2023-03-31T09:48:18;1.73;;;0.93;;
2488;SDS011;1255;48.716;9.124;2023-03-31T09:50:48;2.90;;;1.07;;
2488;SDS011;1255;48.716;9.124;2023-03-31T09:53:19;2.67;;;1.20;;
2488;SDS011;1255;48.716;9.124;2023-03-31T09:55:53;3.43;;;1.57;;
2488;SDS011;1255;48.716;9.124;2023-03-31T09:58:21;1.20;;;1.00;;
2488;SDS011;1255;48.716;9.124;2023-03-31T10:00:56;1.63;;;1.03;;
2488;SDS011;1255;48.716;9.124;2023-03-31T10:03:25;2.67;;;1.40;;
2488;SDS011;1255;48.716;9.124;2023-03-31T10:05:54;1.60;;;1.00;;
2488;SDS011;1255;48.716;9.124;2023-03-31T10:08:23;4.90;;;1.10;;
2488;SDS011;1255;48.716;9.124;2023-03-31T10:10:55;1.63;;;1.10;;
2488;SDS011;1255;48.716;9.124;2023-03-31T10:13:34;2.60;;;1.27;;
2488;SDS011;1255;48.716;9.124;2023-03-31T10:16:09;3.47;;;1.90;;
2488;SDS011;1255;48.716;9.124;2023-03-31T10:18:39;2.17;;;1.40;;
2488;SDS011;1255;48.716;9.124;2023-03-31T10:21:14;2.17;;;1.13;;
2488;SDS011;1255;48.716;9.124;2023-03-31T10:23:46;4.10;;;1.40;;
2488;SDS011;1255;48.716;9.124;2023-03-31T10:26:17;2.40;;;1.30;;
2488;SDS011;1255;48.716;9.124;2023-03-31T10:28:46;2.57;;;1.27;;
2488;SDS011;1255;48.716;9.124;2023-03-31T10:31:16;3.70;;;1.47;;
2488;SDS011;1255;48.716;9.124;2023-03-31T10:33:44;3.03;;;1.73;;
2488;SDS011;1255;48.716;9.124;2023-03-31T10:36:15;2.20;;;1.27;;
2488;SDS011;1255;48.716;9.124;2023-03-31T10:38:46;2.90;;;1.77;;
2488;SDS011;1255;48.716;9.124;2023-03-31T10:41:17;2.70;;;1.40;;
2488;SDS011;1255;48.716;9.124;2023-03-31T10:43:47;3.00;;;1.60;;
2488;SDS011;1255;48.716;9.124;2023-03-31T10:46:15;1.90;;;1.10;;
2488;SDS011;1255;48.716;9.124;2023-03-31T10:48:42;1.77;;;1.00;;
2488;SDS011;1255;48.716;9.124;2023-03-31T10:51:10;2.63;;;1.40;;
2488;SDS011;1255;48.716;9.124;2023-03-31T10:53:40;1.60;;;1.33;;
2488;SDS011;1255;48.716;9.124;2023-03-31T10:56:11;4.87;;;1.03;;
2488;SDS011;1255;48.716;9.124;2023-03-31T10:58:56;2.50;;;1.00;;
2488;SDS011;1255;48.716;9.124;2023-03-31T11:01:34;2.23;;;1.40;;
2488;SDS011;1255;48.716;9.124;2023-03-31T11:04:21;2.20;;;1.10;;
2488;SDS011;1255;48.716;9.124;2023-03-31T11:07:10;1.90;;;1.07;;
2488;SDS011;1255;48.716;9.124;2023-03-31T11:09:46;2.37;;;1.17;;
2488;SDS011;1255;48.716;9.124;2023-03-31T11:12:23;1.53;;;1.10;;
2488;SDS011;1255;48.716;9.124;2023-03-31T11:14:59;2.40;;;1.47;;
2488;SDS011;1255;48.716;9.124;2023-03-31T11:17:41;5.73;;;1.93;;
2488;SDS011;1255;48.716;9.124;2023-03-31T11:20:20;3.73;;;1.57;;
2488;SDS011;1255;48.716;9.124;2023-03-31T11:22:53;1.50;;;1.03;;
2488;SDS011;1255;48.716;9.124;2023-03-31T11:25:30;1.40;;;0.83;;
2488;SDS011;1255;48.716;9.124;2023-03-31T11:28:20;1.10;;;0.82;;
2488;SDS011;1255;48.716;9.124;2023-03-31T11:30:57;0.90;;;0.70;;
2488;SDS011;1255;48.716;9.124;2023-03-31T11:33:38;0.90;;;0.70;;
2488;SDS011;1255;48.716;9.124;2023-03-31T11:36:20;1.98;;;0.70;;
2488;SDS011;1255;48.716;9.124;2023-03-31T11:41:56;1.27;;;0.90;;
2488;SDS011;1255;48.716;9.124;2023-03-31T11:44:28;1.00;;;0.75;;
2488;SDS011;1255;48.716;9.124;2023-03-31T11:47:02;1.52;;;1.10;;
2488;SDS011;1255;48.716;9.124;2023-03-31T11:49:34;1.35;;;0.80;;
2488;SDS011;1255;48.716;9.124;2023-03-31T11:52:06;1.00;;;0.90;;
2488;SDS011;1255;48.716;9.124;2023-03-31T11:54:38;0.90;;;0.70;;
2488;SDS011;1255;48.716;9.124;2023-03-31T11:57:09;0.82;;;0.70;;
2488;SDS011;1255;48.716;9.124;2023-03-31T11:59:43;0.80;;;0.70;;
2488;SDS011;1255;48.716;9.124;2023-03-31T12:02:16;1.00;;;0.80;;
2488;SDS011;1255;48.716;9.124;2023-03-31T12:04:49;0.90;;;0.70;;
2488;SDS011;1255;48.716;9.124;2023-03-31T12:07:21;1.10;;;0.90;;
2488;SDS011;1255;48.716;9.124;2023-03-31T12:09:54;1.50;;;0.77;;
2488;SDS011;1255;48.716;9.124;2023-03-31T12:12:30;0.80;;;0.60;;
2488;SDS011;1255;48.716;9.124;2023-03-31T12:15:04;1.20;;;0.70;;
2488;SDS011;1255;48.716;9.124;2023-03-31T12:17:38;1.00;;;0.77;;
2488;SDS011;1255;48.716;9.124;2023-03-31T12:20:11;1.43;;;0.90;;
2488;SDS011;1255;48.716;9.124;2023-03-31T12:22:52;1.00;;;0.70;;
2488;SDS011;1255;48.716;9.124;2023-03-31T12:25:21;2.00;;;0.80;;
2488;SDS011;1255;48.716;9.124;2023-03-31T12:27:50;1.00;;;0.70;;
2488;SDS011;1255;48.716;9.124;2023-03-31T12:30:21;0.80;;;0.70;;
2488;SDS011;1255;48.716;9.124;2023-03-31T12:32:56;1.00;;;0.70;;
2488;SDS011;1255;48.716;9.124;2023-03-31T12:35:28;1.00;;;0.70;;
2488;SDS011;1255;48.716;9.124;2023-03-31T12:38:14;0.97;;;0.83;;
2488;SDS011;1255;48.716;9.124;2023-03-31T12:40:53;1.47;;;0.90;;
2488;SDS011;1255;48.716;9.124;2023-03-31T12:46:26;1.13;;;0.80;;
2488;SDS011;1255;48.716;9.124;2023-03-31T12:49:07;4.10;;;0.90;;
2488;SDS011;1255;48.716;9.124;2023-03-31T12:51:52;2.03;;;1.03;;
2488;SDS011;1255;48.716;9.124;2023-03-31T12:57:25;1.43;;;1.03;;
2488;SDS011;1255;48.716;9.124;2023-03-31T13:02:47;2.07;;;1.20;;
2488;SDS011;1255;48.716;9.124;2023-03-31T13:08:15;1.27;;;0.90;;
2488;SDS011;1255;48.716;9.124;2023-03-31T13:11:16;1.63;;;1.03;;
2488;SDS011;1255;48.716;9.124;2023-03-31T13:13:46;1.97;;;1.10;;
2488;SDS011;1255;48.716;9.124;2023-03-31T13:16:23;2.17;;;1.30;;
2488;SDS011;1255;48.716;9.124;2023-03-31T13:18:51;1.73;;;0.80;;
2488;SDS011;1255;48.716;9.124;2023-03-31T13:21:20;3.00;;;1.57;;
2488;SDS011;1255;48.716;9.124;2023-03-31T13:23:47;1.30;;;1.10;;
2488;SDS011;1255;48.716;9.124;2023-03-31T13:32:04;1.80;;;0.97;;
2488;SDS011;1255;48.716;9.124;2023-03-31T13:34:46;2.40;;;0.97;;
2488;SDS011;1255;48.716;9.124;2023-03-31T13:37:20;1.08;;;0.90;;
2488;SDS011;1255;48.716;9.124;2023-03-31T13:43:03;0.90;;;0.70;;
2488;SDS011;1255;48.716;9.124;2023-03-31T13:45:47;0.90;;;0.70;;
2488;SDS011;1255;48.716;9.124;2023-03-31T13:48:28;0.90;;;0.70;;
2488;SDS011;1255;48.716;9.124;2023-03-31T13:51:18;0.80;;;0.60;;
2488;SDS011;1255;48.716;9.124;2023-03-31T13:54:00;0.80;;;0.60;;
2488;SDS011;1255;48.716;9.124;2023-03-31T13:56:47;0.80;;;0.70;;
2488;SDS011;1255;48.716;9.124;2023-03-31T13:59:27;0.80;;;0.60;;
2488;SDS011;1255;48.716;9.124;2023-03-31T14:02:23;1.42;;;0.70;;
2488;SDS011;1255;48.716;9.124;2023-03-31T14:07:58;0.80;;;0.70;;
2488;SDS011;1255;48.716;9.124;2023-03-31T14:10:31;0.90;;;0.70;;
2488;SDS011;1255;48.716;9.124;2023-03-31T14:13:06;1.23;;;0.80;;
2488;SDS011;1255;48.716;9.124;2023-03-31T14:15:34;1.60;;;0.95;;
2488;SDS011;1255;48.716;9.124;2023-03-31T14:18:03;0.80;;;0.70;;
2488;SDS011;1255;48.716;9.124;2023-03-31T14:20:35;0.90;;;0.70;;
2488;SDS011;1255;48.716;9.124;2023-03-31T14:23:15;0.97;;;0.80;;
2488;SDS011;1255;48.716;9.124;2023-03-31T14:25:52;0.90;;;0.70;;
2488;SDS011;1255;48.716;9.124;2023-03-31T14:28:30;0.80;;;0.70;;
2488;SDS011;1255;48.716;9.124;2023-03-31T14:31:10;1.00;;;0.67;;
2488;SDS011;1255;48.716;9.124;2023-03-31T14:33:47;0.80;;;0.70;;
2488;SDS011;1255;48.716;9.124;2023-03-31T14:36:27;0.80;;;0.60;;
2488;SDS011;1255;48.716;9.124;2023-03-31T14:39:04;0.80;;;0.60;;
2488;SDS011;1255;48.716;9.124;2023-03-31T14:41:34;0.90;;;0.70;;
2488;SDS011;1255;48.716;9.124;2023-03-31T14:44:02;1.90;;;1.20;;
2488;SDS011;1255;48.716;9.124;2023-03-31T14:46:31;2.13;;;0.80;;
2488;SDS011;1255;48.716;9.124;2023-03-31T14:49:05;1.40;;;0.80;;
2488;SDS011;1255;48.716;9.124;2023-03-31T14:51:41;1.03;;;0.73;;
2488;SDS011;1255;48.716;9.124;2023-03-31T14:54:14;1.93;;;0.70;;
2488;SDS011;1255;48.716;9.124;2023-03-31T14:56:42;1.37;;;1.10;;
2488;SDS011;1255;48.716;9.124;2023-03-31T14:59:12;0.80;;;0.70;;
2488;SDS011;1255;48.716;9.124;2023-03-31T15:01:46;1.20;;;0.87;;
2488;SDS011;1255;48.716;9.124;2023-03-31T15:04:14;1.00;;;0.80;;
2488;SDS011;1255;48.716;9.124;2023-03-31T15:06:44;3.23;;;0.90;;
2488;SDS011;1255;48.716;9.124;2023-03-31T15:09:17;1.20;;;0.80;;
2488;SDS011;1255;48.716;9.124;2023-03-31T15:11:47;0.80;;;0.70;;
2488;SDS011;1255;48.716;9.124;2023-03-31T15:14:20;1.00;;;0.80;;
2488;SDS011;1255;48.716;9.124;2023-03-31T15:16:48;1.10;;;0.70;;
2488;SDS011;1255;48.716;9.124;2023-03-31T15:19:16;1.43;;;0.73;;
2488;SDS011;1255;48.716;9.124;2023-03-31T15:21:45;1.40;;;0.83;;
2488;SDS011;1255;48.716;9.124;2023-03-31T15:24:21;0.80;;;0.80;;
2488;SDS011;1255;48.716;9.124;2023-03-31T15:26:50;1.03;;;0.80;;
2488;SDS011;1255;48.716;9.124;2023-03-31T15:29:21;1.10;;;0.97;;
2488;SDS011;1255;48.716;9.124;2023-03-31T15:31:54;1.00;;;0.80;;
2488;SDS011;1255;48.716;9.124;2023-03-31T15:34:24;2.00;;;1.10;;
2488;SDS011;1255;48.716;9.124;2023-03-31T15:36:54;0.90;;;0.73;;
2488;SDS011;1255;48.716;9.124;2023-03-31T15:39:23;2.22;;;1.08;;
2488;SDS011;1255;48.716;9.124;2023-03-31T15:41:51;1.45;;;0.98;;
2488;SDS011;1255;48.716;9.124;2023-03-31T15:44:30;1.73;;;1.08;;
2488;SDS011;1255;48.716;9.124;2023-03-31T15:47:10;2.03;;;0.95;;
2488;SDS011;1255;48.716;9.124;2023-03-31T15:49:50;2.78;;;1.10;;
2488;SDS011;1255;48.716;9.124;2023-03-31T15:52:21;1.90;;;0.82;;
2488;SDS011;1255;48.716;9.124;2023-03-31T15:54:52;1.98;;;0.80;;
2488;SDS011;1255;48.716;9.124;2023-03-31T15:57:19;2.20;;;1.10;;
2488;SDS011;1255;48.716;9.124;2023-03-31T15:59:46;1.23;;;0.90;;
2488;SDS011;1255;48.716;9.124;2023-03-31T16:02:15;1.30;;;0.90;;
2488;SDS011;1255;48.716;9.124;2023-03-31T16:04:46;1.65;;;0.90;;
2488;SDS011;1255;48.716;9.124;2023-03-31T16:07:15;1.52;;;1.00;;
2488;SDS011;1255;48.716;9.124;2023-03-31T16:09:45;1.38;;;0.82;;
2488;SDS011;1255;48.716;9.124;2023-03-31T16:12:18;3.83;;;0.90;;
2488;SDS011;1255;48.716;9.124;2023-03-31T16:14:49;1.52;;;0.93;;